Time;durP1;ratioP1;P1;durP2;ratioP2;P2;SDS_P1;SDS_P2;PMS_P1;PMS_P2;Temp;Humidity;BMP_temperature;BMP_pressure;BME280_temperature;BME280_humidity;BME280_pressure;Samples;Min_cycle;Max_cycle;Signal;HPM_P1;HPM_P2
2022/10/19 00:00:42;;;;;;;10.30;1.70;;;;;;;11.06;89.45;100177.43;106678;1282;60084;-70
2022/10/19 00:03:31;;;;;;;8.20;1.50;;;;;;;11.09;89.13;100178.64;106679;1275;72104;-71
2022/10/19 00:06:29;;;;;;;8.50;1.60;;;;;;;11.09;89.32;100179.55;106678;1275;68922;-71
2022/10/19 00:09:18;;;;;;;10.60;1.70;;;;;;;11.10;89.27;100174.33;106499;1281;73729;-72
2022/10/19 00:12:05;;;;;;;11.50;1.70;;;;;;;11.11;88.92;100179.73;106668;1274;59239;-72
2022/10/19 00:14:51;;;;;;;6.80;1.30;;;;;;;11.12;89.33;100177.19;106674;1274;61491;-71
2022/10/19 00:17:37;;;;;;;11.40;1.50;;;;;;;11.11;89.41;100174.58;106702;1274;73175;-72
2022/10/19 00:20:24;;;;;;;9.60;1.50;;;;;;;11.11;89.38;100176.23;106641;1282;68724;-72
2022/10/19 00:23:10;;;;;;;10.40;1.40;;;;;;;11.10;89.58;100178.04;106654;1281;73602;-71
2022/10/19 00:25:57;;;;;;;6.30;1.20;;;;;;;11.09;89.28;100171.16;106639;1281;60908;-71
2022/10/19 00:28:43;;;;;;;8.70;1.30;;;;;;;11.10;89.16;100166.52;106693;1281;60128;-71
2022/10/19 00:31:30;;;;;;;9.80;1.60;;;;;;;11.08;89.18;100162.77;106667;1281;73261;-72
2022/10/19 00:34:17;;;;;;;8.00;1.20;;;;;;;11.06;89.17;100157.91;106670;1281;68827;-71
2022/10/19 00:37:03;;;;;;;7.40;1.10;;;;;;;11.06;88.82;100164.11;106677;1282;73660;-72
2022/10/19 00:39:49;;;;;;;8.90;1.50;;;;;;;11.04;88.82;100159.10;106643;1282;60442;-72
2022/10/19 00:42:36;;;;;;;8.20;1.60;;;;;;;11.02;88.58;100162.64;106662;1283;60063;-72
2022/10/19 00:45:23;;;;;;;7.70;1.10;;;;;;;10.97;88.74;100166.30;106683;1281;73432;-72
2022/10/19 00:48:18;;;;;;;9.30;1.90;;;;;;;10.93;88.79;100157.38;106676;1281;67791;-71
2022/10/19 00:51:04;;;;;;;6.50;1.10;;;;;;;10.89;88.73;100157.77;106526;1289;72536;-71
2022/10/19 00:53:50;;;;;;;9.20;1.50;;;;;;;10.89;88.86;100159.03;106675;1273;58983;-73
2022/10/19 00:56:40;;;;;;;7.80;1.50;;;;;;;10.87;89.04;100159.39;106671;1281;60080;-71
2022/10/19 00:59:30;;;;;;;6.00;1.40;;;;;;;10.82;89.17;100159.39;106421;1283;71328;-71
2022/10/19 01:02:17;;;;;;;9.40;2.00;;;;;;;10.77;89.09;100162.48;106518;1282;68728;-72
2022/10/19 01:05:04;;;;;;;7.70;1.30;;;;;;;10.73;89.42;100162.27;106642;1282;72721;-72
2022/10/19 01:07:51;;;;;;;9.40;1.30;;;;;;;10.70;89.75;100160.67;106346;1284;60652;-72
2022/10/19 01:11:38;;;;;;;7.10;1.30;;;;;;;10.68;89.74;100154.77;106597;1282;60241;-72
2022/10/19 01:15:03;;;;;;;7.40;1.30;;;;;;;10.66;89.90;100151.06;106679;1281;72239;-72
2022/10/19 01:18:14;;;;;;;6.30;1.20;;;;;;;10.60;89.63;100149.55;106057;1290;67044;-71
2022/10/19 01:21:34;;;;;;;5.90;1.20;;;;;;;10.58;89.93;100153.64;106016;1288;73627;-71
2022/10/19 01:24:26;;;;;;;6.20;1.20;;;;;;;10.58;90.17;100156.80;106013;1296;60680;-72
2022/10/19 01:27:29;;;;;;;7.30;1.20;;;;;;;10.61;90.27;100154.80;106045;1293;59381;-72
2022/10/19 01:30:41;;;;;;;6.70;1.20;;;;;;;10.64;90.07;100152.08;106024;1289;70659;-72
2022/10/19 01:33:33;;;;;;;6.90;1.30;;;;;;;10.68;90.50;100153.39;106000;1290;67761;-72
2022/10/19 01:36:31;;;;;;;7.50;1.30;;;;;;;10.68;91.45;100150.37;106057;1290;70881;-71
2022/10/19 01:39:52;;;;;;;9.40;1.20;;;;;;;10.67;91.84;100151.64;106039;1296;57736;-71
2022/10/19 01:43:03;;;;;;;7.10;1.20;;;;;;;10.65;92.20;100149.54;106031;1288;59897;-72
2022/10/19 01:45:59;;;;;;;5.80;1.10;;;;;;;10.62;93.20;100146.63;106024;1288;72089;-72
2022/10/19 01:48:55;;;;;;;7.00;1.40;;;;;;;10.59;93.29;100158.21;105951;1294;68791;-72
2022/10/19 01:51:50;;;;;;;5.70;1.20;;;;;;;10.58;94.20;100158.98;105987;1283;72649;-72
2022/10/19 01:54:41;;;;;;;6.30;1.10;;;;;;;10.55;94.99;100155.81;106458;1275;60589;-73
2022/10/19 01:57:36;;;;;;;10.10;1.80;;;;;;;10.55;94.91;100162.02;106505;1283;61381;-72
2022/10/19 02:00:24;;;;;;;5.60;1.20;;;;;;;10.54;95.26;100163.45;106644;1281;73154;-72
2022/10/19 02:03:12;;;;;;;7.00;1.40;;;;;;;10.57;95.30;100168.10;106512;1281;67793;-71
2022/10/19 02:06:01;;;;;;;6.70;1.20;;;;;;;10.56;95.85;100162.61;106625;1280;72629;-71
2022/10/19 02:08:50;;;;;;;7.70;1.20;;;;;;;10.57;96.58;100166.81;106502;1284;60650;-71
2022/10/19 02:11:37;;;;;;;6.80;1.10;;;;;;;10.59;96.74;100167.42;106670;1273;61380;-72
2022/10/19 02:14:37;;;;;;;7.70;1.20;;;;;;;10.58;96.29;100171.55;106676;1274;73176;-71
2022/10/19 02:17:32;;;;;;;5.00;1.40;;;;;;;10.58;96.65;100172.41;106525;1281;68162;-72
2022/10/19 02:20:19;;;;;;;5.80;1.30;;;;;;;10.55;97.09;100176.18;106650;1284;73587;-71
2022/10/19 02:23:06;;;;;;;5.30;1.00;;;;;;;10.52;97.22;100173.93;106488;1281;59133;-72
2022/10/19 02:25:54;;;;;;;6.00;1.10;;;;;;;10.49;97.44;100177.39;106500;1287;60463;-71
2022/10/19 02:28:44;;;;;;;9.20;1.40;;;;;;;10.46;97.12;100182.36;106493;1276;70990;-71
2022/10/19 02:31:31;;;;;;;7.70;1.40;;;;;;;10.43;97.48;100176.56;106651;1274;67774;-72
2022/10/19 02:34:17;;;;;;;5.30;1.00;;;;;;;10.41;97.14;100175.12;106474;1281;72575;-71
2022/10/19 02:37:04;;;;;;;5.10;0.90;;;;;;;10.39;97.14;100172.08;106490;1284;60528;-71
2022/10/19 02:39:51;;;;;;;4.00;1.00;;;;;;;10.35;97.02;100172.19;106659;1280;60306;-71
2022/10/19 02:42:59;;;;;;;6.10;1.30;;;;;;;10.32;97.28;100174.50;106485;1277;72082;-72
2022/10/19 02:45:59;;;;;;;5.20;1.20;;;;;;;10.31;97.35;100175.45;106651;1281;68574;-71
2022/10/19 02:48:48;;;;;;;5.60;1.10;;;;;;;10.32;97.70;100177.92;106519;1285;72722;-71
2022/10/19 02:51:38;;;;;;;5.40;1.10;;;;;;;10.31;98.04;100173.89;106448;1282;60470;-72
2022/10/19 02:54:26;;;;;;;6.20;1.10;;;;;;;10.30;98.06;100175.94;106667;1281;60366;-75
2022/10/19 02:57:14;;;;;;;7.00;1.10;;;;;;;10.29;98.17;100184.33;106680;1281;72096;-72
2022/10/19 03:00:02;;;;;;;7.30;1.10;;;;;;;10.29;98.23;100188.40;106686;1281;67799;-72
2022/10/19 03:02:48;;;;;;;4.40;0.90;;;;;;;10.26;98.56;100186.66;106493;1278;72684;-71
2022/10/19 03:05:35;;;;;;;4.90;0.90;;;;;;;10.21;98.64;100187.70;106648;1281;59547;-72
2022/10/19 03:08:21;;;;;;;3.40;0.90;;;;;;;10.16;98.96;100189.16;106669;1281;61261;-71
2022/10/19 03:11:07;;;;;;;6.30;1.20;;;;;;;10.13;98.98;100192.59;106586;1283;73297;-72
2022/10/19 03:13:54;;;;;;;5.60;1.20;;;;;;;10.11;99.44;100194.48;106691;1280;66966;-71
2022/10/19 03:16:40;;;;;;;4.80;1.20;;;;;;;10.08;99.60;100196.53;106665;1281;71657;-73
2022/10/19 03:19:27;;;;;;;5.30;1.00;;;;;;;10.04;99.71;100200.11;106694;1282;59539;-71
2022/10/19 03:22:14;;;;;;;4.10;1.00;;;;;;;10.03;99.61;100202.57;106664;1281;61135;-71
2022/10/19 03:25:00;;;;;;;4.40;0.90;;;;;;;10.02;99.80;100194.96;106674;1282;72265;-71
2022/10/19 03:27:47;;;;;;;5.40;1.20;;;;;;;10.03;99.46;100197.96;106674;1281;67698;-71
2022/10/19 03:30:33;;;;;;;4.60;1.10;;;;;;;10.04;99.81;100206.74;106598;1280;73744;-72
2022/10/19 03:33:20;;;;;;;5.20;1.20;;;;;;;10.04;99.85;100203.84;106602;1276;58589;-77
2022/10/19 03:36:30;;;;;;;4.60;0.90;;;;;;;10.06;99.70;100206.95;106634;1282;60030;-71
2022/10/19 03:39:17;;;;;;;4.70;1.10;;;;;;;10.08;99.94;100216.94;106617;1281;73214;-72
2022/10/19 03:42:04;;;;;;;4.60;1.20;;;;;;;10.08;99.56;100219.02;106653;1281;67855;-72
2022/10/19 03:44:50;;;;;;;5.20;1.00;;;;;;;10.02;99.61;100214.48;106650;1280;72682;-74
2022/10/19 03:47:37;;;;;;;4.00;1.00;;;;;;;9.95;99.81;100214.13;106615;1280;58950;-72
2022/10/19 03:50:23;;;;;;;5.80;1.40;;;;;;;9.88;99.61;100215.52;106627;1281;61299;-71
2022/10/19 03:53:10;;;;;;;5.10;1.40;;;;;;;9.82;99.88;100220.01;106622;1280;72374;-70
2022/10/19 03:56:07;;;;;;;5.30;1.40;;;;;;;9.78;99.71;100224.36;106633;1282;69158;-72
2022/10/19 03:58:56;;;;;;;5.50;1.00;;;;;;;9.76;100.00;100221.86;106654;1282;72653;-71
2022/10/19 04:01:45;;;;;;;4.70;0.90;;;;;;;9.76;100.00;100221.86;106523;1289;60587;-72
2022/10/19 04:04:31;;;;;;;5.80;1.10;;;;;;;9.76;100.00;100223.60;106630;1282;59156;-72
2022/10/19 04:07:17;;;;;;;5.60;1.20;;;;;;;9.79;100.00;100228.94;106623;1280;72009;-71
2022/10/19 04:10:04;;;;;;;6.20;1.60;;;;;;;9.79;100.00;100237.20;106614;1281;67617;-71
2022/10/19 04:12:50;;;;;;;4.50;1.10;;;;;;;9.78;100.00;100251.27;106606;1280;71452;-72
2022/10/19 04:15:39;;;;;;;4.50;1.30;;;;;;;9.73;100.00;100258.22;106606;1282;60969;-73
2022/10/19 04:18:26;;;;;;;4.20;1.00;;;;;;;9.64;100.00;100258.86;106484;1284;60781;-71
2022/10/19 04:21:36;;;;;;;4.40;1.10;;;;;;;9.54;99.86;100265.02;106621;1281;72230;-71
2022/10/19 04:24:22;;;;;;;4.70;1.10;;;;;;;9.44;99.94;100267.36;106621;1280;68934;-72
2022/10/19 04:27:09;;;;;;;5.30;0.90;;;;;;;9.38;100.00;100273.80;106474;1284;70769;-72
2022/10/19 04:29:55;;;;;;;5.20;1.10;;;;;;;9.34;100.00;100278.14;106641;1276;58035;-73
2022/10/19 04:32:41;;;;;;;3.80;1.00;;;;;;;9.28;100.00;100277.60;106652;1281;61353;-72
2022/10/19 04:35:27;;;;;;;3.90;1.00;;;;;;;9.29;100.00;100278.64;106623;1282;73082;-71
2022/10/19 04:38:14;;;;;;;5.00;1.20;;;;;;;9.28;100.00;100280.45;106652;1281;67665;-72
2022/10/19 04:41:09;;;;;;;6.50;1.30;;;;;;;9.28;100.00;100284.37;106619;1281;72690;-73
2022/10/19 04:43:58;;;;;;;4.50;1.10;;;;;;;9.27;100.00;100285.88;106637;1288;59482;-71
2022/10/19 04:46:45;;;;;;;5.10;1.50;;;;;;;9.26;100.00;100285.77;106649;1274;61288;-74
2022/10/19 04:49:31;;;;;;;6.50;1.50;;;;;;;9.25;100.00;100293.43;106627;1274;72142;-71
2022/10/19 04:52:25;;;;;;;7.10;1.30;;;;;;;9.24;100.00;100294.19;106675;1282;67797;-72
2022/10/19 04:55:11;;;;;;;5.60;1.10;;;;;;;9.25;100.00;100295.40;106642;1283;71397;-73
2022/10/19 04:57:58;;;;;;;4.70;1.20;;;;;;;9.26;100.00;100292.85;106643;1282;58558;-73
2022/10/19 05:00:44;;;;;;;4.50;1.10;;;;;;;9.26;100.00;100294.10;106632;1281;60023;-73
2022/10/19 05:03:30;;;;;;;6.30;1.40;;;;;;;9.23;100.00;100294.81;106592;1281;70738;-73
2022/10/19 05:06:17;;;;;;;5.90;1.50;;;;;;;9.22;100.00;100303.38;106631;1281;68882;-72
2022/10/19 05:09:03;;;;;;;4.00;0.90;;;;;;;9.21;100.00;100305.00;106616;1288;73705;-72
2022/10/19 05:11:50;;;;;;;6.00;1.00;;;;;;;9.21;100.00;100308.40;106613;1276;60814;-72
2022/10/19 05:14:36;;;;;;;5.40;1.50;;;;;;;9.22;100.00;100303.58;106627;1275;61071;-71
2022/10/19 05:17:31;;;;;;;5.50;1.30;;;;;;;9.20;100.00;100306.88;106640;1281;72207;-72
2022/10/19 05:20:18;;;;;;;6.10;1.40;;;;;;;9.18;100.00;100304.14;106637;1281;66792;-72
2022/10/19 05:23:04;;;;;;;5.20;1.20;;;;;;;9.17;100.00;100302.62;106633;1283;72661;-73
2022/10/19 05:26:04;;;;;;;7.00;2.80;;;;;;;9.15;100.00;100313.71;106659;1280;57716;-72
2022/10/19 05:28:56;;;;;;;6.00;1.60;;;;;;;9.16;100.00;100318.13;106623;1279;60415;-72
2022/10/19 05:31:43;;;;;;;6.30;1.40;;;;;;;9.16;100.00;100321.65;106480;1286;73115;-72
2022/10/19 05:34:29;;;;;;;6.00;1.50;;;;;;;9.17;100.00;100326.01;106638;1281;68822;-73
2022/10/19 05:37:16;;;;;;;6.70;1.50;;;;;;;9.17;100.00;100326.15;106635;1280;71590;-72
2022/10/19 05:40:03;;;;;;;4.90;1.30;;;;;;;9.18;100.00;100327.14;106610;1280;59579;-71
2022/10/19 05:42:49;;;;;;;6.80;1.40;;;;;;;9.19;100.00;100329.04;106650;1282;61266;-71
2022/10/19 05:45:35;;;;;;;5.50;1.20;;;;;;;9.21;100.00;100332.09;106358;1282;72292;-72
2022/10/19 05:48:22;;;;;;;7.80;1.80;;;;;;;9.22;99.98;100333.48;106641;1287;68944;-74
2022/10/19 05:51:12;;;;;;;10.20;2.50;;;;;;;9.25;99.75;100345.14;106606;1280;73731;-70
2022/10/19 05:53:58;;;;;;;6.80;1.80;;;;;;;9.29;99.98;100349.48;106585;1281;59609;-73
2022/10/19 05:56:46;;;;;;;5.90;1.50;;;;;;;9.33;99.65;100359.63;106642;1287;58862;-74
2022/10/19 05:59:32;;;;;;;7.00;2.00;;;;;;;9.36;98.96;100360.30;106650;1287;70815;-73
2022/10/19 06:02:19;;;;;;;5.10;1.40;;;;;;;9.38;98.69;100365.30;106650;1283;67621;-72
2022/10/19 06:05:06;;;;;;;6.70;1.50;;;;;;;9.38;98.47;100367.05;106382;1290;70964;-73
2022/10/19 06:07:53;;;;;;;6.90;1.60;;;;;;;9.37;97.91;100373.70;106636;1281;57880;-73
2022/10/19 06:10:39;;;;;;;6.10;1.40;;;;;;;9.35;97.31;100378.27;106634;1280;61242;-73
2022/10/19 06:13:26;;;;;;;5.60;1.30;;;;;;;9.37;97.22;100389.12;106633;1282;72338;-72
2022/10/19 06:16:14;;;;;;;5.60;1.40;;;;;;;9.40;96.91;100386.80;106564;1281;68848;-72
2022/10/19 06:19:01;;;;;;;7.50;1.60;;;;;;;9.42;96.36;100383.85;106624;1280;73845;-72
2022/10/19 06:21:47;;;;;;;5.80;1.70;;;;;;;9.42;95.59;100384.50;106639;1275;60510;-71
2022/10/19 06:24:34;;;;;;;5.40;1.20;;;;;;;9.48;95.37;100382.87;106668;1280;58858;-72
2022/10/19 06:27:20;;;;;;;7.00;1.40;;;;;;;9.52;94.90;100391.61;106630;1283;71382;-72
2022/10/19 06:30:07;;;;;;;7.70;1.50;;;;;;;9.51;93.81;100392.42;106622;1280;67933;-73
2022/10/19 06:32:53;;;;;;;8.90;1.30;;;;;;;9.48;94.03;100400.95;106660;1280;72565;-72
2022/10/19 06:35:41;;;;;;;8.00;1.10;;;;;;;9.47;92.79;100404.91;106632;1281;60154;-73
2022/10/19 06:38:28;;;;;;;4.90;1.30;;;;;;;9.48;92.54;100413.67;106636;1274;60442;-73
2022/10/19 06:41:15;;;;;;;5.30;1.30;;;;;;;9.46;92.74;100415.07;106597;1282;73288;-73
2022/10/19 06:44:01;;;;;;;8.90;1.30;;;;;;;9.42;92.63;100421.34;106630;1287;67791;-72
2022/10/19 06:46:48;;;;;;;6.70;1.20;;;;;;;9.40;92.41;100429.14;106646;1280;72543;-71
2022/10/19 06:49:34;;;;;;;6.00;1.10;;;;;;;9.38;91.94;100435.11;106564;1285;58898;-72
2022/10/19 06:52:21;;;;;;;9.70;1.30;;;;;;;9.35;92.76;100438.45;106681;1275;59176;-73
2022/10/19 06:55:08;;;;;;;6.10;1.30;;;;;;;9.35;93.65;100441.10;106609;1282;72103;-71
2022/10/19 06:57:54;;;;;;;6.90;1.50;;;;;;;9.35;92.47;100451.07;106646;1282;67561;-72
2022/10/19 07:00:41;;;;;;;5.30;1.50;;;;;;;9.33;92.39;100453.45;106662;1282;70848;-71
2022/10/19 07:03:29;;;;;;;6.50;1.10;;;;;;;9.50;91.73;100452.02;106626;1284;60605;-72
2022/10/19 07:06:15;;;;;;;6.00;1.30;;;;;;;9.75;90.67;100455.45;106626;1283;60195;-73
2022/10/19 07:09:02;;;;;;;5.80;1.30;;;;;;;9.86;89.30;100460.36;106631;1282;72132;-72
2022/10/19 07:11:49;;;;;;;7.10;1.50;;;;;;;10.35;89.55;100464.80;106648;1282;67845;-73
2022/10/19 07:14:38;;;;;;;4.70;1.30;;;;;;;12.48;85.35;100461.37;106641;1281;72521;-71
2022/10/19 07:17:25;;;;;;;8.10;1.90;;;;;;;14.55;78.65;100462.36;106608;1281;59318;-73
2022/10/19 07:20:11;;;;;;;6.40;1.50;;;;;;;16.03;71.30;100453.71;106631;1282;60355;-72
2022/10/19 07:22:57;;;;;;;5.10;1.40;;;;;;;15.86;66.55;100458.18;106620;1280;72243;-72
2022/10/19 07:25:44;;;;;;;6.20;1.20;;;;;;;15.71;65.28;100465.84;106670;1281;66189;-73
2022/10/19 07:28:31;;;;;;;5.50;1.10;;;;;;;14.88;64.55;100477.42;106648;1280;72360;-73
2022/10/19 07:31:22;;;;;;;4.50;1.10;;;;;;;14.91;66.58;100479.42;106635;1287;58797;-72
2022/10/19 07:34:12;;;;;;;5.60;1.30;;;;;;;16.77;63.06;100478.72;106650;1281;61236;-71
2022/10/19 07:36:59;;;;;;;6.60;1.10;;;;;;;18.42;59.21;100480.51;106478;1286;72039;-72
2022/10/19 07:39:45;;;;;;;7.60;1.50;;;;;;;19.98;52.56;100480.23;106640;1280;68726;-72
2022/10/19 07:42:31;;;;;;;7.20;1.20;;;;;;;20.18;50.50;100482.45;106456;1285;71430;-72
2022/10/19 07:45:18;;;;;;;4.60;1.10;;;;;;;18.78;50.70;100493.67;106638;1282;57713;-73
2022/10/19 07:48:05;;;;;;;4.90;1.00;;;;;;;17.56;53.08;100494.84;106654;1281;60387;-73
2022/10/19 07:50:51;;;;;;;5.50;1.30;;;;;;;16.47;54.18;100498.73;106650;1282;73388;-73
2022/10/19 07:53:38;;;;;;;7.30;1.30;;;;;;;15.87;56.93;100509.63;106668;1280;66607;-72
2022/10/19 07:56:26;;;;;;;6.10;1.30;;;;;;;15.81;56.78;100508.89;106622;1274;72590;-71
2022/10/19 07:59:15;;;;;;;4.70;1.10;;;;;;;15.36;56.85;100516.67;106625;1280;58977;-72
2022/10/19 08:02:03;;;;;;;6.00;1.20;;;;;;;14.73;58.77;100516.75;106647;1275;58870;-73
2022/10/19 08:04:50;;;;;;;5.60;1.10;;;;;;;14.07;60.23;100518.13;106641;1287;71950;-72
2022/10/19 08:07:56;;;;;;;5.10;1.20;;;;;;;13.59;62.01;100523.38;106649;1281;67978;-72
2022/10/19 08:10:43;;;;;;;6.50;1.90;;;;;;;13.45;63.76;100528.15;106623;1280;73616;-73
2022/10/19 08:13:29;;;;;;;11.20;3.50;;;;;;;13.55;64.60;100520.41;106473;1288;210685;-77
2022/10/19 08:16:36;;;;;;;10.80;5.50;;;;;;;13.50;65.45;100524.54;106659;1279;58955;-76
2022/10/19 08:19:23;;;;;;;15.20;10.00;;;;;;;15.96;62.69;100518.55;106615;1281;73320;-77
2022/10/19 08:22:10;;;;;;;8.10;2.00;;;;;;;17.35;57.53;100516.23;106642;1274;68882;-76
2022/10/19 08:24:56;;;;;;;6.00;1.40;;;;;;;17.30;54.77;100518.23;106643;1282;71287;-78
2022/10/19 08:27:42;;;;;;;5.80;1.40;;;;;;;18.10;53.51;100513.55;106618;1275;57136;-76
2022/10/19 08:30:29;;;;;;;6.00;1.30;;;;;;;18.81;49.86;100518.09;106667;1281;59056;-78
2022/10/19 08:33:15;;;;;;;5.70;1.20;;;;;;;18.07;51.09;100518.39;106648;1280;72031;-76
2022/10/19 08:36:07;;;;;;;5.50;1.50;;;;;;;19.18;48.47;100525.53;106621;1282;67735;-77
2022/10/19 08:38:54;;;;;;;21.50;5.50;;;;;;;19.58;47.54;100533.75;106652;1274;74018;-78
2022/10/19 08:42:22;;;;;;;7.40;1.50;;;;;;;18.71;46.16;100528.33;106644;1276;57989;-79
2022/10/19 08:45:41;;;;;;;6.00;1.10;;;;;;;17.23;49.01;100533.74;106506;1282;60193;-76
2022/10/19 08:48:41;;;;;;;7.40;1.50;;;;;;;15.99;52.25;100541.89;106618;1280;72244;-77
2022/10/19 08:51:38;;;;;;;6.00;1.50;;;;;;;15.10;54.37;100547.09;106503;1281;67557;-76
2022/10/19 08:54:39;;;;;;;8.00;3.20;;;;;;;14.82;56.35;100552.27;106460;1284;73139;-76
2022/10/19 08:58:04;;;;;;;8.00;2.70;;;;;;;15.96;54.19;100550.77;106476;1281;58839;-77
2022/10/19 09:01:12;;;;;;;7.40;1.60;;;;;;;18.04;49.51;100548.83;106646;1281;60226;-77
2022/10/19 09:04:13;;;;;;;6.30;1.50;;;;;;;19.97;44.92;100553.27;106617;1275;73263;-77
2022/10/19 09:07:28;;;;;;;5.70;1.40;;;;;;;21.22;42.01;100550.08;106643;1281;66809;-77
2022/10/19 09:10:14;;;;;;;6.60;2.00;;;;;;;21.63;40.75;100551.53;106637;1274;72463;-78
2022/10/19 09:13:40;;;;;;;5.30;1.50;;;;;;;22.37;38.21;100552.68;106629;1282;57950;-77
2022/10/19 09:16:47;;;;;;;5.10;1.30;;;;;;;20.73;39.66;100565.76;106505;1282;60116;-77
2022/10/19 09:19:36;;;;;;;6.80;1.90;;;;;;;20.34;39.21;100565.36;106602;1275;73075;-75
2022/10/19 09:22:31;;;;;;;4.90;1.20;;;;;;;19.97;38.82;100579.52;106631;1281;68715;-73
2022/10/19 09:25:21;;;;;;;4.80;1.20;;;;;;;18.52;39.61;100582.20;106472;1277;72442;-72
2022/10/19 09:28:36;;;;;;;3.90;1.00;;;;;;;17.38;41.17;100588.77;106623;1280;59003;-72
2022/10/19 09:31:42;;;;;;;5.10;1.10;;;;;;;17.57;42.32;100587.61;106508;1278;61555;-72
2022/10/19 09:34:37;;;;;;;5.40;1.20;;;;;;;19.92;38.78;100588.86;106478;1281;73465;-74
2022/10/19 09:37:23;;;;;;;4.70;1.00;;;;;;;20.25;37.30;100588.39;106513;1278;67946;-73
2022/10/19 09:40:27;;;;;;;4.50;0.90;;;;;;;19.06;39.42;100598.71;106661;1281;71212;-73
2022/10/19 09:43:20;;;;;;;4.50;0.90;;;;;;;17.95;39.81;100604.69;106614;1289;58819;-73
2022/10/19 09:46:19;;;;;;;4.10;0.80;;;;;;;17.11;40.79;100605.85;106607;1281;60458;-73
2022/10/19 09:49:06;;;;;;;6.70;1.60;;;;;;;16.17;42.58;100617.77;106457;1284;72126;-73
2022/10/19 09:51:54;;;;;;;5.80;1.20;;;;;;;15.29;44.16;100620.84;106670;1281;66498;-72
2022/10/19 09:54:40;;;;;;;5.10;1.20;;;;;;;14.49;46.59;100627.55;106457;1284;73671;-71
2022/10/19 09:57:27;;;;;;;5.90;1.10;;;;;;;13.67;49.31;100636.17;106634;1281;57818;-73
2022/10/19 10:00:24;;;;;;;5.00;1.50;;;;;;;13.15;51.14;100642.45;106647;1282;60284;-72
2022/10/19 10:03:42;;;;;;;5.10;1.20;;;;;;;12.75;53.07;100640.90;106582;1280;70838;-72
2022/10/19 10:06:28;;;;;;;5.40;1.10;;;;;;;13.45;53.00;100645.46;106640;1274;68631;-73
2022/10/19 10:09:25;;;;;;;6.20;1.10;;;;;;;14.60;50.18;100640.21;106475;1281;70205;-72
2022/10/19 10:12:14;;;;;;;5.10;1.20;;;;;;;14.79;49.75;100638.98;106485;1285;57963;-73
2022/10/19 10:15:05;;;;;;;4.80;1.20;;;;;;;17.07;44.95;100638.85;106486;1281;60432;-72
2022/10/19 10:17:52;;;;;;;4.70;1.20;;;;;;;19.39;39.60;100632.30;106623;1274;70265;-73
2022/10/19 10:20:55;;;;;;;5.10;1.00;;;;;;;19.80;37.76;100636.14;106649;1281;67845;-73
2022/10/19 10:23:58;;;;;;;6.40;1.40;;;;;;;18.48;38.92;100643.54;106505;1274;72635;-74
2022/10/19 10:26:53;;;;;;;6.00;1.10;;;;;;;17.13;40.59;100651.92;106492;1290;57798;-72
2022/10/19 10:29:54;;;;;;;4.50;1.00;;;;;;;16.09;42.90;100663.80;106783;1274;58888;-74
2022/10/19 10:32:49;;;;;;;7.90;1.10;;;;;;;15.28;44.16;100664.59;106537;1285;72949;-72
2022/10/19 10:35:36;;;;;;;5.00;1.20;;;;;;;14.88;45.34;100666.61;106564;1281;68018;-73
2022/10/19 10:38:38;;;;;;;5.20;1.20;;;;;;;15.94;43.33;100667.27;106633;1273;72446;-74
2022/10/19 10:41:27;;;;;;;7.00;1.40;;;;;;;16.10;43.67;100664.29;106570;1281;57970;-73
2022/10/19 10:44:28;;;;;;;5.30;1.20;;;;;;;16.65;43.50;100662.14;106429;1281;61325;-72
2022/10/19 10:47:19;;;;;;;7.50;1.40;;;;;;;19.39;38.92;100652.64;106578;1283;73054;-72
2022/10/19 10:50:06;;;;;;;5.50;1.00;;;;;;;21.17;34.70;100648.44;106609;1273;67746;-73
2022/10/19 10:53:05;;;;;;;5.30;1.00;;;;;;;20.57;33.50;100654.07;106645;1281;72321;-73
2022/10/19 10:55:55;;;;;;;6.00;1.00;;;;;;;21.06;32.75;100649.10;106670;1275;56868;-72
2022/10/19 10:58:52;;;;;;;6.10;1.00;;;;;;;22.23;30.80;100649.98;106634;1281;60242;-71
2022/10/19 11:02:11;;;;;;;4.20;1.00;;;;;;;22.63;30.17;100646.45;106494;1282;71964;-74
2022/10/19 11:05:16;;;;;;;6.70;1.20;;;;;;;21.97;30.16;100657.04;106513;1275;66197;-73
2022/10/19 11:08:17;;;;;;;5.30;0.80;;;;;;;21.07;30.88;100661.09;106608;1281;72056;-72
2022/10/19 11:11:26;;;;;;;6.30;1.00;;;;;;;19.62;34.79;100664.63;106633;1268;57784;-73
2022/10/19 11:14:45;;;;;;;5.30;1.10;;;;;;;17.98;37.58;100673.30;106606;1282;61421;-72
2022/10/19 11:17:38;;;;;;;4.10;0.90;;;;;;;16.47;39.33;100678.75;106023;1289;73049;-71
2022/10/19 11:20:29;;;;;;;4.00;0.90;;;;;;;15.41;41.15;100683.21;105931;1280;67537;-72
2022/10/19 11:23:41;;;;;;;6.30;1.10;;;;;;;15.38;42.29;100683.55;105962;1289;73354;-72
2022/10/19 11:26:52;;;;;;;5.40;0.90;;;;;;;14.76;43.66;100680.83;106021;1280;57017;-72
2022/10/19 11:29:57;;;;;;;4.30;1.10;;;;;;;14.22;45.04;100686.22;106039;1289;60133;-71
2022/10/19 11:33:12;;;;;;;4.40;1.20;;;;;;;13.87;45.94;100680.52;106037;1286;73284;-72
2022/10/19 11:36:14;;;;;;;9.00;1.50;;;;;;;13.51;47.15;100685.96;106075;1288;68703;-72
2022/10/19 11:39:15;;;;;;;5.30;1.00;;;;;;;13.19;49.10;100684.14;105984;1280;72166;-71
2022/10/19 11:42:41;;;;;;;5.00;1.00;;;;;;;12.70;51.32;100687.58;106075;1288;58863;-71
2022/10/19 11:45:48;;;;;;;5.10;0.90;;;;;;;12.14;53.62;100702.07;106080;1288;60192;-72
2022/10/19 11:48:56;;;;;;;7.50;1.20;;;;;;;11.82;55.28;100702.06;106089;1288;70614;-72
2022/10/19 11:58:45;;;;;;;7.50;1.20;;;;;;;-128.00;-1.00;-1.00;2;529688272;529688272;-73
2022/10/19 12:09:02;;;;;;;7.50;1.20;;;;;;;-57.44;27.11;50354.09;2;573792862;573792862;-71
2022/10/19 12:12:11;;;;;;;4.50;1.10;;;;;;;13.08;55.47;100703.36;106657;1281;58669;-71
2022/10/19 12:15:10;;;;;;;5.90;1.30;;;;;;;13.80;52.93;100699.65;106605;1274;73065;-72
2022/10/19 12:18:07;;;;;;;4.20;1.00;;;;;;;14.29;51.99;100703.66;106624;1273;68645;-72
2022/10/19 12:21:01;;;;;;;5.90;0.90;;;;;;;14.42;50.38;100700.42;106451;1289;73928;-73
2022/10/19 12:23:47;;;;;;;6.30;1.20;;;;;;;14.40;49.54;100696.50;106419;1281;302812;-71
2022/10/19 12:26:36;;;;;;;4.40;1.00;;;;;;;14.51;48.57;100691.86;106658;1281;58963;-73
2022/10/19 12:29:46;;;;;;;7.30;1.20;;;;;;;14.76;48.05;100692.58;104046;1281;3002815;-72
2022/10/19 12:32:45;;;;;;;4.90;0.90;;;;;;;15.07;46.93;100696.05;106654;1281;69073;-71
2022/10/19 12:36:01;;;;;;;5.10;1.10;;;;;;;15.12;46.36;100699.52;106610;1281;73550;-71
2022/10/19 12:39:12;;;;;;;5.10;0.90;;;;;;;14.89;44.94;100702.27;106505;1282;58949;-71
2022/10/19 12:42:38;;;;;;;5.90;1.40;;;;;;;14.35;44.30;100701.93;106646;1276;59270;-71
2022/10/19 12:45:33;;;;;;;4.90;1.30;;;;;;;13.64;45.74;100699.88;106621;1288;70699;-72
2022/10/19 12:48:21;;;;;;;5.00;1.10;;;;;;;13.36;46.76;100708.53;106647;1267;68689;-72
2022/10/19 12:51:14;;;;;;;5.70;1.00;;;;;;;13.19;47.63;100708.02;106459;1284;73518;-71
2022/10/19 12:54:08;;;;;;;5.40;1.20;;;;;;;12.89;47.79;100712.48;106486;1284;58855;-72
2022/10/19 12:56:56;;;;;;;4.70;1.00;;;;;;;12.71;48.49;100713.89;106469;1283;60369;-72
2022/10/19 12:59:43;;;;;;;4.50;0.90;;;;;;;12.72;48.45;100715.41;106664;1275;72613;-71
2022/10/19 13:02:35;;;;;;;4.80;1.00;;;;;;;12.62;47.81;100709.07;106657;1281;67774;-72
2022/10/19 13:05:26;;;;;;;5.20;1.10;;;;;;;12.59;46.77;100715.98;106609;1275;72594;-72
2022/10/19 13:08:40;;;;;;;4.40;1.00;;;;;;;12.55;47.34;100722.91;106500;1284;57882;-71
2022/10/19 13:11:27;;;;;;;4.20;1.10;;;;;;;12.46;47.37;100722.83;106520;1283;60183;-73
2022/10/19 13:14:13;;;;;;;13.50;1.30;;;;;;;12.39;47.91;100723.02;106653;1274;73186;-72
2022/10/19 13:17:01;;;;;;;6.10;1.30;;;;;;;12.33;47.57;100721.72;106634;1281;69115;-71
2022/10/19 13:19:48;;;;;;;7.70;1.20;;;;;;;12.18;48.64;100726.89;106558;1267;73792;-72
2022/10/19 13:22:34;;;;;;;5.20;1.30;;;;;;;11.81;51.32;100729.91;106465;1284;58814;-72
2022/10/19 13:25:39;;;;;;;7.80;1.00;;;;;;;11.43;52.72;100729.40;106465;1283;60178;-73
2022/10/19 13:28:25;;;;;;;4.70;1.10;;;;;;;10.96;55.01;100734.60;106587;1280;71519;-71